createdAt,value
2018-12-18T00:00:42.139Z,102014.00
2018-12-18T00:03:10.248Z,102027.00
2018-12-18T00:05:38.420Z,102027.00
2018-12-18T00:08:06.491Z,102026.00
2018-12-18T00:10:40.078Z,102027.00
2018-12-18T00:13:08.146Z,102040.00
2018-12-18T00:15:36.221Z,102041.00
2018-12-18T00:18:04.633Z,102020.00
2018-12-18T00:20:32.708Z,102027.00
2018-12-18T00:23:00.788Z,102029.00
2018-12-18T00:25:28.889Z,102022.00
2018-12-18T00:27:56.940Z,102019.00
2018-12-18T00:30:25.020Z,102029.00
2018-12-18T00:32:53.103Z,102021.00
2018-12-18T00:35:21.644Z,102021.00
2018-12-18T00:37:49.708Z,102018.00
2018-12-18T00:40:17.811Z,102014.00
2018-12-18T00:42:45.888Z,102014.00
2018-12-18T00:45:13.964Z,102015.00
2018-12-18T00:47:42.062Z,102017.00
2018-12-18T00:50:10.165Z,102013.00
2018-12-18T00:52:38.237Z,102025.00
2018-12-18T00:55:08.365Z,102011.00
2018-12-18T00:57:36.437Z,102010.00
2018-12-18T01:00:08.368Z,102024.00
2018-12-18T01:02:36.452Z,102017.00
2018-12-18T01:05:05.028Z,102011.00
2018-12-18T01:07:33.100Z,102010.00
2018-12-18T01:10:01.166Z,102017.00
2018-12-18T01:12:29.246Z,102015.00
2018-12-18T01:14:57.309Z,102014.00
2018-12-18T01:17:25.833Z,102027.00
2018-12-18T01:19:53.916Z,102023.00
2018-12-18T01:22:22.020Z,102025.00
2018-12-18T01:24:50.100Z,102036.00
2018-12-18T01:27:18.187Z,102042.00
2018-12-18T01:29:46.284Z,102043.00
2018-12-18T01:32:14.385Z,102040.00
2018-12-18T01:34:42.471Z,102044.00
2018-12-18T01:37:10.722Z,102056.00
2018-12-18T01:42:13.467Z,102045.00
2018-12-18T01:44:41.549Z,102050.00
2018-12-18T01:47:09.621Z,102051.00
2018-12-18T01:49:37.690Z,102055.00
2018-12-18T01:52:05.770Z,102049.00
2018-12-18T01:54:33.845Z,102058.00
2018-12-18T01:57:01.930Z,102063.00
2018-12-18T01:59:30.676Z,102049.00
2018-12-18T02:01:58.747Z,102056.00
2018-12-18T02:04:26.821Z,102055.00
2018-12-18T02:06:54.909Z,102055.00
2018-12-18T02:09:23.076Z,102048.00
2018-12-18T02:11:51.158Z,102049.00
2018-12-18T02:14:19.340Z,102057.00
2018-12-18T02:16:47.420Z,102049.00
2018-12-18T02:19:15.480Z,102052.00
2018-12-18T02:21:43.774Z,102046.00
2018-12-18T02:24:11.841Z,102053.00
2018-12-18T02:26:39.922Z,102061.00
2018-12-18T02:29:08.012Z,102064.00
2018-12-18T02:31:36.102Z,102062.00
2018-12-18T02:34:04.172Z,102056.00
2018-12-18T02:36:32.327Z,102061.00
2018-12-18T02:39:00.504Z,102061.00
2018-12-18T02:41:28.576Z,102051.00
2018-12-18T02:43:57.091Z,102041.00
2018-12-18T02:46:25.164Z,102045.00
2018-12-18T02:48:53.227Z,102040.00
2018-12-18T02:51:21.313Z,102044.00
2018-12-18T02:53:49.384Z,102037.00
2018-12-18T02:56:17.459Z,102031.00
2018-12-18T02:58:45.552Z,102046.00
2018-12-18T03:01:13.723Z,102041.00
2018-12-18T03:03:41.799Z,102035.00
2018-12-18T03:06:10.109Z,102044.00
2018-12-18T03:08:38.189Z,102036.00
2018-12-18T03:11:06.368Z,102037.00
2018-12-18T03:13:34.443Z,102047.00
2018-12-18T03:16:02.514Z,102053.00
2018-12-18T03:18:30.601Z,102060.00
2018-12-18T03:20:58.757Z,102060.00
2018-12-18T03:23:26.851Z,102062.00
2018-12-18T03:25:54.929Z,102064.00
2018-12-18T03:28:23.336Z,102054.00
2018-12-18T03:30:51.427Z,102066.00
2018-12-18T03:33:19.592Z,102060.00
2018-12-18T03:35:47.684Z,102061.00
2018-12-18T03:38:15.856Z,102055.00
2018-12-18T03:40:44.249Z,102056.00
2018-12-18T03:43:12.328Z,102052.00
2018-12-18T03:45:40.414Z,102055.00
2018-12-18T03:48:08.501Z,102060.00
2018-12-18T03:50:37.251Z,102054.00
2018-12-18T03:53:05.324Z,102062.00
2018-12-18T03:55:33.396Z,102056.00
2018-12-18T03:58:01.473Z,102054.00
2018-12-18T04:00:29.559Z,102058.00
2018-12-18T04:02:57.707Z,102062.00
2018-12-18T04:05:26.692Z,102056.00
2018-12-18T04:07:54.774Z,102061.00
2018-12-18T04:10:23.025Z,102069.00
2018-12-18T04:12:51.525Z,102064.00
2018-12-18T04:15:19.645Z,102063.00
2018-12-18T04:17:47.813Z,102061.00
2018-12-18T04:20:15.897Z,102055.00
2018-12-18T04:22:43.963Z,102066.00
2018-12-18T04:25:12.037Z,102054.00
2018-12-18T04:27:40.143Z,102045.00
2018-12-18T04:30:08.220Z,102048.00
2018-12-18T04:32:36.291Z,102048.00
2018-12-18T04:35:05.612Z,102055.00
2018-12-18T04:37:33.702Z,102050.00
2018-12-18T04:40:01.767Z,102066.00
2018-12-18T04:42:30.320Z,102062.00
2018-12-18T04:44:58.438Z,102060.00
2018-12-18T04:47:26.514Z,102065.00
2018-12-18T04:49:54.602Z,102070.00
2018-12-18T04:52:22.701Z,102065.00
2018-12-18T04:54:50.783Z,102060.00
2018-12-18T04:57:19.146Z,102056.00
2018-12-18T04:59:47.231Z,102060.00
2018-12-18T05:02:15.394Z,102052.00
2018-12-18T05:04:49.983Z,102048.00
2018-12-18T05:07:13.575Z,102052.00
2018-12-18T05:09:41.754Z,102050.00
2018-12-18T05:12:09.901Z,102054.00
2018-12-18T05:14:37.981Z,102051.00
2018-12-18T05:17:06.057Z,102047.00
2018-12-18T05:19:34.493Z,102046.00
2018-12-18T05:22:02.570Z,102046.00
2018-12-18T05:24:30.632Z,102052.00
2018-12-18T05:26:58.715Z,102049.00
2018-12-18T05:29:26.786Z,102060.00
2018-12-18T05:31:54.862Z,102054.00
2018-12-18T05:34:22.944Z,102055.00
2018-12-18T05:36:51.023Z,102071.00
2018-12-18T05:39:19.525Z,102071.00
2018-12-18T05:41:47.661Z,102068.00
2018-12-18T05:44:16.125Z,102065.00
2018-12-18T05:46:45.059Z,102075.00
2018-12-18T05:49:13.131Z,102075.00
2018-12-18T05:51:41.194Z,102084.00
2018-12-18T05:54:09.255Z,102094.00
2018-12-18T05:56:37.364Z,102089.00
2018-12-18T05:59:05.431Z,102087.00
2018-12-18T06:01:33.518Z,102096.00
2018-12-18T06:04:01.658Z,102092.00
2018-12-18T06:06:29.749Z,102094.00
2018-12-18T06:08:57.837Z,102090.00
2018-12-18T06:11:25.929Z,102095.00
2018-12-18T06:13:54.003Z,102095.00
2018-12-18T06:16:22.085Z,102108.00
2018-12-18T06:18:50.259Z,102107.00
2018-12-18T06:21:18.331Z,102108.00
2018-12-18T06:23:46.409Z,102107.00
2018-12-18T06:26:14.531Z,102111.00
2018-12-18T06:28:42.603Z,102108.00
2018-12-18T06:31:10.686Z,102101.00
2018-12-18T06:33:38.784Z,102112.00
2018-12-18T06:36:06.959Z,102113.00
2018-12-18T06:38:35.027Z,102107.00
2018-12-18T06:41:03.125Z,102117.00
2018-12-18T06:43:31.213Z,102121.00
2018-12-18T06:45:59.656Z,102116.00
2018-12-18T06:48:28.034Z,102109.00
2018-12-18T06:50:56.117Z,102113.00
2018-12-18T06:53:24.192Z,102111.00
2018-12-18T06:55:52.281Z,102115.00
2018-12-18T06:58:20.384Z,102125.00
2018-12-18T07:00:48.474Z,102118.00
2018-12-18T07:03:16.567Z,102125.00
2018-12-18T07:05:44.653Z,102122.00
2018-12-18T07:08:12.733Z,102130.00
2018-12-18T07:10:40.869Z,102122.00
2018-12-18T07:13:08.953Z,102135.00
2018-12-18T07:15:37.031Z,102135.00
2018-12-18T07:18:05.136Z,102128.00
2018-12-18T07:20:33.205Z,102128.00
2018-12-18T07:23:01.270Z,102127.00
2018-12-18T07:25:29.352Z,102139.00
2018-12-18T07:27:57.463Z,102140.00
2018-12-18T07:30:25.535Z,102141.00
2018-12-18T07:32:53.671Z,102125.00
2018-12-18T07:35:23.354Z,102139.00
2018-12-18T07:37:51.718Z,102136.00
2018-12-18T07:40:19.804Z,102141.00
2018-12-18T07:42:48.106Z,102136.00
2018-12-18T07:45:16.170Z,102132.00
2018-12-18T07:47:44.353Z,102148.00
2018-12-18T07:50:12.443Z,102156.00
2018-12-18T07:52:40.551Z,102153.00
2018-12-18T07:55:08.681Z,102164.00
2018-12-18T07:57:36.745Z,102174.00
2018-12-18T08:00:06.210Z,102179.00
2018-12-18T08:02:34.309Z,102173.00
2018-12-18T08:05:02.396Z,102178.00
2018-12-18T08:07:30.480Z,102182.00
2018-12-18T08:09:58.627Z,102185.00
2018-12-18T08:12:26.709Z,102185.00
2018-12-18T08:14:54.775Z,102189.00
2018-12-18T08:17:23.131Z,102178.00
2018-12-18T08:19:51.207Z,102176.00
2018-12-18T08:22:19.307Z,102180.00
2018-12-18T08:24:47.413Z,102170.00
2018-12-18T08:27:15.525Z,102174.00
2018-12-18T08:29:43.615Z,102179.00
2018-12-18T08:32:11.699Z,102175.00
2018-12-18T08:34:39.786Z,102181.00
2018-12-18T08:37:07.863Z,102180.00
2018-12-18T08:39:36.277Z,102191.00
2018-12-18T08:42:04.569Z,102179.00
2018-12-18T08:44:32.635Z,102186.00
2018-12-18T08:47:00.743Z,102178.00
2018-12-18T08:49:28.958Z,102180.00
2018-12-18T08:51:57.045Z,102179.00
2018-12-18T08:54:25.143Z,102182.00
2018-12-18T08:56:53.222Z,102174.00
2018-12-18T08:59:21.281Z,102175.00
2018-12-18T09:01:49.857Z,102185.00
2018-12-18T09:04:18.313Z,102190.00
2018-12-18T09:06:46.400Z,102196.00
2018-12-18T09:09:14.476Z,102182.00
2018-12-18T09:11:42.565Z,102187.00
2018-12-18T09:14:10.630Z,102182.00
2018-12-18T09:16:44.333Z,102191.00
2018-12-18T09:19:12.405Z,102181.00
2018-12-18T09:21:40.480Z,102189.00
2018-12-18T09:24:08.639Z,102198.00
2018-12-18T09:26:36.757Z,102195.00
2018-12-18T09:29:04.846Z,102194.00
2018-12-18T09:31:32.928Z,102196.00
2018-12-18T09:34:01.012Z,102179.00
2018-12-18T09:36:29.089Z,102184.00
2018-12-18T09:39:02.696Z,102189.00
2018-12-18T09:41:32.672Z,102181.00
2018-12-18T09:44:06.614Z,102174.00
2018-12-18T09:46:34.689Z,102177.00
2018-12-18T09:49:02.778Z,102178.00
2018-12-18T09:51:31.158Z,102174.00
2018-12-18T09:53:59.253Z,102179.00
2018-12-18T09:56:27.346Z,102181.00
2018-12-18T09:58:55.439Z,102173.00
2018-12-18T10:01:23.524Z,102185.00
2018-12-18T10:03:51.707Z,102182.00
2018-12-18T10:06:19.934Z,102190.00
2018-12-18T10:08:48.017Z,102190.00
2018-12-18T10:13:50.462Z,102184.00
2018-12-18T10:16:18.547Z,102178.00
2018-12-18T10:18:46.632Z,102177.00
2018-12-18T10:21:14.738Z,102182.00
2018-12-18T10:23:42.812Z,102188.00
2018-12-18T10:26:10.913Z,102187.00
2018-12-18T10:28:39.293Z,102184.00
2018-12-18T10:31:07.373Z,102179.00
2018-12-18T10:33:35.480Z,102176.00
2018-12-18T10:36:03.574Z,102168.00
2018-12-18T10:38:31.654Z,102179.00
2018-12-18T10:40:59.751Z,102173.00
2018-12-18T10:43:27.853Z,102168.00
2018-12-18T10:45:55.942Z,102183.00
2018-12-18T10:48:24.003Z,102167.00
2018-12-18T10:50:52.451Z,102168.00
2018-12-18T10:53:20.820Z,102170.00
2018-12-18T10:55:48.900Z,102164.00
2018-12-18T10:58:23.808Z,102158.00
2018-12-18T11:00:52.433Z,102159.00
2018-12-18T11:03:20.520Z,102155.00
2018-12-18T11:05:48.600Z,102149.00
2018-12-18T11:08:16.684Z,102140.00
2018-12-18T11:10:44.813Z,102146.00
2018-12-18T11:13:16.986Z,102146.00
2018-12-18T11:15:45.387Z,102157.00
2018-12-18T11:18:13.458Z,102159.00
2018-12-18T11:20:41.573Z,102152.00
2018-12-18T11:23:09.650Z,102150.00
2018-12-18T11:25:37.723Z,102140.00
2018-12-18T11:28:05.795Z,102141.00
2018-12-18T11:30:34.337Z,102139.00
2018-12-18T11:33:02.414Z,102132.00
2018-12-18T11:35:30.518Z,102125.00
2018-12-18T11:37:58.609Z,102120.00
2018-12-18T11:40:26.691Z,102113.00
2018-12-18T11:42:54.815Z,102111.00
2018-12-18T11:45:22.905Z,102107.00
2018-12-18T11:47:50.971Z,102107.00
2018-12-18T11:50:19.061Z,102105.00
2018-12-18T11:52:47.459Z,102102.00
2018-12-18T11:55:15.826Z,102095.00
2018-12-18T11:57:43.897Z,102090.00
2018-12-18T12:00:13.406Z,102094.00
2018-12-18T12:02:42.957Z,102097.00
2018-12-18T12:05:11.304Z,102094.00
2018-12-18T12:07:39.397Z,102082.00
2018-12-18T12:10:08.213Z,102084.00
2018-12-18T12:12:36.307Z,102089.00
2018-12-18T12:15:05.945Z,102080.00
2018-12-18T12:17:34.013Z,102089.00
2018-12-18T12:20:02.092Z,102075.00
2018-12-18T12:22:30.175Z,102088.00
2018-12-18T12:24:58.257Z,102088.00
2018-12-18T12:27:31.821Z,102099.00
2018-12-18T12:29:59.930Z,102093.00
2018-12-18T12:32:28.038Z,102086.00
2018-12-18T12:34:57.622Z,102083.00
2018-12-18T12:37:25.693Z,102079.00
2018-12-18T12:39:53.783Z,102075.00
2018-12-18T12:42:21.877Z,102071.00
2018-12-18T12:44:49.953Z,102075.00
2018-12-18T12:47:18.039Z,102083.00
2018-12-18T12:49:46.119Z,102084.00
2018-12-18T12:52:14.229Z,102087.00
2018-12-18T12:54:42.303Z,102090.00
2018-12-18T12:57:10.836Z,102095.00
2018-12-18T12:59:38.927Z,102093.00
2018-12-18T13:02:06.992Z,102082.00
2018-12-18T13:04:35.076Z,102084.00
2018-12-18T13:07:03.153Z,102074.00
2018-12-18T13:09:31.225Z,102082.00
2018-12-18T13:11:59.313Z,102079.00
2018-12-18T13:14:27.389Z,102079.00
2018-12-18T13:16:57.004Z,102075.00
2018-12-18T13:19:25.131Z,102076.00
2018-12-18T13:21:53.203Z,102075.00
2018-12-18T13:24:21.300Z,102071.00
2018-12-18T13:26:49.502Z,102079.00
2018-12-18T13:29:17.669Z,102068.00
2018-12-18T13:31:46.089Z,102071.00
2018-12-18T13:34:14.238Z,102081.00
2018-12-18T13:36:43.087Z,102082.00
2018-12-18T13:39:11.481Z,102088.00
2018-12-18T13:41:39.893Z,102092.00
2018-12-18T13:44:07.967Z,102081.00
2018-12-18T13:46:36.045Z,102095.00
2018-12-18T13:49:04.181Z,102076.00
2018-12-18T13:51:32.268Z,102081.00
2018-12-18T13:54:00.345Z,102079.00
2018-12-18T13:56:28.433Z,102071.00
2018-12-18T13:58:56.807Z,102072.00
2018-12-18T14:01:24.897Z,102078.00
2018-12-18T14:03:53.568Z,102074.00
2018-12-18T14:06:21.643Z,102081.00
2018-12-18T14:08:49.719Z,102078.00
2018-12-18T14:11:17.807Z,102076.00
2018-12-18T14:13:45.872Z,102078.00
2018-12-18T14:16:13.950Z,102072.00
2018-12-18T14:18:42.037Z,102072.00
2018-12-18T14:21:10.126Z,102076.00
2018-12-18T14:23:38.200Z,102089.00
2018-12-18T14:26:06.549Z,102080.00
2018-12-18T14:28:34.621Z,102070.00
2018-12-18T14:31:02.731Z,102069.00
2018-12-18T14:33:30.810Z,102068.00
2018-12-18T14:35:58.891Z,102058.00
2018-12-18T14:38:26.973Z,102068.00
2018-12-18T14:40:55.052Z,102056.00
2018-12-18T14:43:23.136Z,102071.00
2018-12-18T14:45:51.215Z,102085.00
2018-12-18T14:48:19.693Z,102074.00
2018-12-18T14:50:47.793Z,102078.00
2018-12-18T14:53:15.885Z,102074.00
2018-12-18T14:55:44.103Z,102062.00
2018-12-18T14:58:12.184Z,102059.00
2018-12-18T15:00:40.856Z,102058.00
2018-12-18T15:03:08.953Z,102051.00
2018-12-18T15:05:37.134Z,102049.00
2018-12-18T15:08:05.204Z,102051.00
2018-12-18T15:10:33.369Z,102051.00
2018-12-18T15:13:01.462Z,102058.00
2018-12-18T15:15:29.536Z,102060.00
2018-12-18T15:17:57.624Z,102047.00
2018-12-18T15:20:25.739Z,102051.00
2018-12-18T15:22:53.821Z,102052.00
2018-12-18T15:25:21.925Z,102045.00
2018-12-18T15:27:50.009Z,102044.00
2018-12-18T15:30:18.086Z,102046.00
2018-12-18T15:32:46.505Z,102047.00
2018-12-18T15:35:14.579Z,102046.00
2018-12-18T15:37:43.055Z,102047.00
2018-12-18T15:40:11.127Z,102049.00
2018-12-18T15:42:39.221Z,102044.00
2018-12-18T15:45:08.617Z,102051.00
2018-12-18T15:47:36.705Z,102056.00
2018-12-18T15:50:06.581Z,102056.00
2018-12-18T15:52:34.658Z,102058.00
2018-12-18T15:55:03.065Z,102058.00
2018-12-18T15:57:31.140Z,102055.00
2018-12-18T15:59:59.217Z,102062.00
2018-12-18T16:02:27.635Z,102070.00
2018-12-18T16:04:55.710Z,102066.00
2018-12-18T16:07:23.774Z,102068.00
2018-12-18T16:09:51.846Z,102073.00
2018-12-18T16:12:19.918Z,102067.00
2018-12-18T16:14:47.982Z,102076.00
2018-12-18T16:17:16.151Z,102065.00
2018-12-18T16:19:44.231Z,102061.00
2018-12-18T16:22:12.301Z,102060.00
2018-12-18T16:24:40.381Z,102064.00
2018-12-18T16:27:08.447Z,102069.00
2018-12-18T16:29:36.520Z,102081.00
2018-12-18T16:32:04.597Z,102073.00
2018-12-18T16:34:32.655Z,102067.00
2018-12-18T16:37:00.723Z,102071.00
2018-12-18T16:39:29.377Z,102063.00
2018-12-18T16:41:57.505Z,102054.00
2018-12-18T16:44:25.565Z,102051.00
2018-12-18T16:46:53.696Z,102049.00
2018-12-18T16:49:21.778Z,102063.00
2018-12-18T16:51:49.856Z,102061.00
2018-12-18T16:54:18.342Z,102071.00
2018-12-18T16:56:46.518Z,102080.00
2018-12-18T16:59:14.590Z,102077.00
2018-12-18T17:01:42.948Z,102074.00
2018-12-18T17:04:11.373Z,102082.00
2018-12-18T17:06:39.465Z,102072.00
2018-12-18T17:09:07.580Z,102072.00
2018-12-18T17:11:35.643Z,102072.00
2018-12-18T17:14:03.752Z,102073.00
2018-12-18T17:16:31.828Z,102068.00
2018-12-18T17:18:59.944Z,102070.00
2018-12-18T17:21:28.043Z,102073.00
2018-12-18T17:23:56.151Z,102061.00
2018-12-18T17:26:24.245Z,102055.00
2018-12-18T17:28:52.304Z,102058.00
2018-12-18T17:31:20.391Z,102057.00
2018-12-18T17:33:48.481Z,102049.00
2018-12-18T17:36:16.566Z,102053.00
2018-12-18T17:38:44.637Z,102057.00
2018-12-18T17:41:12.707Z,102056.00
2018-12-18T17:43:40.985Z,102059.00
2018-12-18T17:46:09.676Z,102057.00
2018-12-18T17:48:37.739Z,102050.00
2018-12-18T17:51:05.828Z,102053.00
2018-12-18T17:53:34.016Z,102053.00
2018-12-18T17:56:02.079Z,102050.00
2018-12-18T17:58:30.157Z,102054.00
2018-12-18T18:00:58.237Z,102045.00
2018-12-18T18:03:26.307Z,102044.00
2018-12-18T18:05:54.762Z,102049.00
2018-12-18T18:08:23.131Z,102051.00
2018-12-18T18:10:51.210Z,102048.00
2018-12-18T18:13:19.284Z,102051.00
2018-12-18T18:15:47.352Z,102055.00
2018-12-18T18:18:15.440Z,102050.00
2018-12-18T18:20:43.537Z,102045.00
2018-12-18T18:23:11.605Z,102037.00
2018-12-18T18:25:39.789Z,102048.00
2018-12-18T18:28:07.852Z,102044.00
2018-12-18T18:30:36.188Z,102053.00
2018-12-18T18:33:04.251Z,102044.00
2018-12-18T18:35:32.386Z,102045.00
2018-12-18T18:38:00.464Z,102037.00
2018-12-18T18:40:28.553Z,102037.00
2018-12-18T18:42:56.629Z,102034.00
2018-12-18T18:45:24.711Z,102037.00
2018-12-18T18:47:52.774Z,102037.00
2018-12-18T18:50:20.856Z,102029.00
2018-12-18T18:52:49.399Z,102035.00
2018-12-18T18:55:17.495Z,102023.00
2018-12-18T18:57:51.557Z,102025.00
2018-12-18T19:00:19.625Z,102039.00
2018-12-18T19:02:47.705Z,102025.00
2018-12-18T19:05:15.873Z,102016.00
2018-12-18T19:07:44.325Z,102016.00
2018-12-18T19:10:12.399Z,102028.00
2018-12-18T19:12:40.999Z,102032.00
2018-12-18T19:15:09.075Z,102031.00
2018-12-18T19:17:37.136Z,102031.00
2018-12-18T19:20:05.951Z,102028.00
2018-12-18T19:22:34.023Z,102031.00
2018-12-18T19:25:02.083Z,102018.00
2018-12-18T19:27:30.165Z,102021.00
2018-12-18T19:29:58.237Z,102020.00
2018-12-18T19:32:26.299Z,102008.00
2018-12-18T19:34:54.874Z,102009.00
2018-12-18T19:37:22.950Z,102016.00
2018-12-18T19:39:51.322Z,102019.00
2018-12-18T19:42:19.713Z,102008.00
2018-12-18T19:44:47.876Z,102011.00
2018-12-18T19:47:15.981Z,102014.00
2018-12-18T19:49:44.050Z,102010.00
2018-12-18T19:52:12.121Z,102009.00
2018-12-18T19:54:40.194Z,102008.00
2018-12-18T19:57:08.534Z,102002.00
2018-12-18T19:59:36.900Z,101999.00
2018-12-18T20:02:04.975Z,102010.00
2018-12-18T20:04:33.040Z,101991.00
2018-12-18T20:07:01.113Z,101990.00
2018-12-18T20:09:29.480Z,101992.00
2018-12-18T20:11:57.661Z,101985.00
2018-12-18T20:14:25.732Z,101972.00
2018-12-18T20:16:53.889Z,101979.00
2018-12-18T20:19:22.321Z,101975.00
2018-12-18T20:21:50.410Z,101980.00
2018-12-18T20:24:18.994Z,101986.00
2018-12-18T20:26:47.076Z,101988.00
2018-12-18T20:29:15.237Z,101984.00
2018-12-18T20:31:43.308Z,101975.00
2018-12-18T20:34:11.418Z,101989.00
2018-12-18T20:36:39.493Z,101983.00
2018-12-18T20:39:08.472Z,101974.00
2018-12-18T20:41:36.797Z,101957.00
2018-12-18T20:44:04.872Z,101956.00
2018-12-18T20:46:33.537Z,101954.00
2018-12-18T20:49:01.630Z,101963.00
2018-12-18T20:51:29.701Z,101950.00
2018-12-18T20:53:57.778Z,101950.00
2018-12-18T20:56:26.073Z,101942.00
2018-12-18T20:58:54.132Z,101951.00
2018-12-18T21:01:22.211Z,101943.00
2018-12-18T21:03:50.604Z,101946.00
2018-12-18T21:06:18.677Z,101946.00
2018-12-18T21:08:46.748Z,101940.00
2018-12-18T21:11:15.413Z,101941.00
2018-12-18T21:13:43.481Z,101932.00
2018-12-18T21:16:11.596Z,101932.00
2018-12-18T21:18:39.674Z,101922.00
2018-12-18T21:21:07.732Z,101931.00
2018-12-18T21:23:35.802Z,101926.00
2018-12-18T21:26:04.101Z,101913.00
2018-12-18T21:28:32.161Z,101913.00
2018-12-18T21:31:00.242Z,101909.00
2018-12-18T21:33:28.316Z,101912.00
2018-12-18T21:35:56.473Z,101897.00
2018-12-18T21:38:30.278Z,101895.00
2018-12-18T21:40:54.634Z,101893.00
2018-12-18T21:43:22.695Z,101894.00
2018-12-18T21:45:50.757Z,101894.00
2018-12-18T21:48:19.343Z,101892.00
2018-12-18T21:50:47.408Z,101880.00
2018-12-18T21:53:15.477Z,101893.00
2018-12-18T21:55:43.572Z,101890.00
2018-12-18T21:58:11.631Z,101895.00
2018-12-18T22:00:39.733Z,101898.00
2018-12-18T22:03:07.809Z,101897.00
2018-12-18T22:05:35.887Z,101900.00
2018-12-18T22:08:03.964Z,101900.00
2018-12-18T22:10:32.110Z,101911.00
2018-12-18T22:13:00.451Z,101898.00
2018-12-18T22:15:28.519Z,101901.00
2018-12-18T22:17:56.602Z,101895.00
2018-12-18T22:20:24.689Z,101889.00
2018-12-18T22:22:52.823Z,101890.00
2018-12-18T22:25:20.941Z,101886.00
2018-12-18T22:27:49.411Z,101881.00
2018-12-18T22:30:17.575Z,101876.00
2018-12-18T22:32:45.866Z,101870.00
2018-12-18T22:35:13.949Z,101863.00
2018-12-18T22:37:42.013Z,101875.00
2018-12-18T22:40:10.108Z,101864.00
2018-12-18T22:42:38.177Z,101857.00
2018-12-18T22:45:06.586Z,101860.00
2018-12-18T22:47:34.665Z,101844.00
2018-12-18T22:50:02.731Z,101830.00
2018-12-18T22:52:30.805Z,101840.00
2018-12-18T22:54:59.235Z,101830.00
2018-12-18T22:57:27.334Z,101831.00
2018-12-18T22:59:55.396Z,101823.00
2018-12-18T23:02:23.495Z,101836.00
2018-12-18T23:04:51.753Z,101826.00
2018-12-18T23:07:19.826Z,101820.00
2018-12-18T23:09:47.909Z,101819.00
2018-12-18T23:12:15.973Z,101805.00
2018-12-18T23:14:44.303Z,101796.00
2018-12-18T23:17:13.041Z,101795.00
2018-12-18T23:19:41.950Z,101788.00
2018-12-18T23:22:10.015Z,101780.00
2018-12-18T23:24:38.091Z,101786.00
2018-12-18T23:27:06.175Z,101786.00
2018-12-18T23:29:34.243Z,101782.00
2018-12-18T23:32:02.325Z,101775.00
2018-12-18T23:34:33.107Z,101778.00
2018-12-18T23:37:00.474Z,101770.00
2018-12-18T23:39:29.034Z,101764.00
2018-12-18T23:41:57.486Z,101768.00
2018-12-18T23:44:25.585Z,101762.00
2018-12-18T23:46:53.671Z,101770.00
2018-12-18T23:49:21.735Z,101757.00
2018-12-18T23:51:49.809Z,101757.00
2018-12-18T23:54:17.887Z,101758.00
2018-12-18T23:56:45.961Z,101755.00
2018-12-18T23:59:14.033Z,101736.00
